Pagrindinis puslapis
METAR-TAF:

METAR-TAF

Oro uostai :

Šamberi-Eks le Benas, Prancūzija

platuma: 45-39N, ilguma: 005-53E, Aukštis: 235 m

Dabartinis oras

Ataskaita buvo paskelbta 10 minutes, ne 11:30 UTC
Vėjas 4 kt iš Šiaurės/Šiaurės Vakarų, svyruoja nuo Vakarų/Šiaurės Vakarų ir Šiaurės Rytų
Temperatūra 23°C
Drėgmė 50%
Slėgis 1018 hPa
Matomumas 10 km arba daugiau
nėra debesų žemiau 1500 m ir nėra kamuolinių lietaus debesų

METAR: LFLB 211130Z AUTO 33004KT 300V040 CAVOK 23/12 Q1018 NOSIG

Laikas: 13:40 (11:40 UTC)

Prognozė

Ataskaita buvo paskelbta 40 minutes, ne 11:00 UTC
Prognozė galioja nuo 21 metu 12 UTC su 22 metu 12 UTC
Vėjas 5 kt iš Šiaurės
Matomumas 10 km arba daugiau
nėra debesų žemiau 1500 m ir nėra kamuolinių lietaus debesų
Tapsmas
nuo 21 metu 18 UTC su 21 metu 20 UTC
Vėjas 2 kt nuo kintamojo kryptimis
Tapsmas
nuo 22 metu 04 UTC su 22 metu 06 UTC
Vėjas 5 kt iš Pietų

TAF: LFLB 211100Z 2112/2212 35005KT CAVOK BECMG 2118/2120 VRB02KT BECMG 2204/2206 18005KT

Orai ataskaitas ir orų prognozės (METAR, TAF).

turimą stotys yra geltonos ir raudonos taškus žemėlapyje.

Perkelti pele per norėdami pamatyti stoties vardą.

Tada spustelėkite, norėdami matyti oro stebėjimo ir prognozės.

Norėdami pakeisti žemėlapį: spustelėkite ant žalios mygtukų su juodo kryžiaus žemyn,; žalią mygtuką su brūkšneliu, jei norite nutolinti; arba žalių rodyklių gretimoms žemėlapius.


METAR-TAF: